sensor_id;sensor_type;location;lat;lon;timestamp;pressure;altitude;pressure_sealevel;temperature;humidity
15694;BME280;7947;48.834;9.132;2022-08-19T00:02:18;97747.09;;;22.27;67.04
15694;BME280;7947;48.834;9.132;2022-08-19T00:05:36;97742.88;;;22.29;66.97
15694;BME280;7947;48.834;9.132;2022-08-19T00:08:56;97737.84;;;22.31;66.46
15694;BME280;7947;48.834;9.132;2022-08-19T00:12:11;97731.50;;;22.27;67.37
15694;BME280;7947;48.834;9.132;2022-08-19T00:15:26;97729.97;;;22.30;66.69
15694;BME280;7947;48.834;9.132;2022-08-19T00:19:01;97739.34;;;22.29;66.96
15694;BME280;7947;48.834;9.132;2022-08-19T00:22:12;97739.97;;;22.22;67.18
15694;BME280;7947;48.834;9.132;2022-08-19T00:25:22;97740.78;;;22.23;67.26
15694;BME280;7947;48.834;9.132;2022-08-19T00:29:17;97750.13;;;22.22;66.75
15694;BME280;7947;48.834;9.132;2022-08-19T00:32:29;97750.91;;;22.22;66.84
15694;BME280;7947;48.834;9.132;2022-08-19T00:35:52;97732.56;;;22.23;67.08
15694;BME280;7947;48.834;9.132;2022-08-19T00:39:32;97727.47;;;22.21;67.03
15694;BME280;7947;48.834;9.132;2022-08-19T00:43:18;97718.06;;;22.19;67.42
15694;BME280;7947;48.834;9.132;2022-08-19T00:46:46;97704.75;;;22.17;67.41
15694;BME280;7947;48.834;9.132;2022-08-19T00:49:59;97708.63;;;22.16;67.49
15694;BME280;7947;48.834;9.132;2022-08-19T00:53:20;97714.03;;;22.13;67.37
15694;BME280;7947;48.834;9.132;2022-08-19T00:56:31;97715.19;;;22.12;67.48
15694;BME280;7947;48.834;9.132;2022-08-19T01:00:10;97720.59;;;22.08;67.53
15694;BME280;7947;48.834;9.132;2022-08-19T01:03:23;97724.88;;;22.09;67.64
15694;BME280;7947;48.834;9.132;2022-08-19T01:07:07;97735.09;;;22.12;67.71
15694;BME280;7947;48.834;9.132;2022-08-19T01:10:32;97740.91;;;22.11;67.94
15694;BME280;7947;48.834;9.132;2022-08-19T01:13:44;97738.19;;;22.11;68.22
15694;BME280;7947;48.834;9.132;2022-08-19T01:17:10;97731.41;;;22.05;67.97
15694;BME280;7947;48.834;9.132;2022-08-19T01:21:04;97727.03;;;22.00;68.31
15694;BME280;7947;48.834;9.132;2022-08-19T01:24:31;97723.94;;;22.02;68.33
15694;BME280;7947;48.834;9.132;2022-08-19T01:28:07;97725.81;;;21.98;68.75
15694;BME280;7947;48.834;9.132;2022-08-19T01:31:52;97727.69;;;21.94;68.52
15694;BME280;7947;48.834;9.132;2022-08-19T01:35:06;97726.09;;;21.93;68.79
15694;BME280;7947;48.834;9.132;2022-08-19T01:38:42;97717.91;;;21.93;68.50
15694;BME280;7947;48.834;9.132;2022-08-19T01:42:02;97712.47;;;21.93;69.08
15694;BME280;7947;48.834;9.132;2022-08-19T01:45:11;97716.69;;;21.90;69.21
15694;BME280;7947;48.834;9.132;2022-08-19T01:48:17;97717.91;;;21.93;68.82
15694;BME280;7947;48.834;9.132;2022-08-19T01:51:29;97717.56;;;21.94;69.12
15694;BME280;7947;48.834;9.132;2022-08-19T01:54:42;97712.53;;;21.96;69.14
15694;BME280;7947;48.834;9.132;2022-08-19T01:57:58;97715.63;;;21.95;69.37
15694;BME280;7947;48.834;9.132;2022-08-19T02:01:13;97718.19;;;21.88;69.46
15694;BME280;7947;48.834;9.132;2022-08-19T02:04:23;97724.00;;;21.86;69.45
15694;BME280;7947;48.834;9.132;2022-08-19T02:07:35;97722.06;;;21.87;69.59
15694;BME280;7947;48.834;9.132;2022-08-19T02:10:55;97737.66;;;21.86;69.85
15694;BME280;7947;48.834;9.132;2022-08-19T02:14:10;97737.66;;;21.86;69.98
15694;BME280;7947;48.834;9.132;2022-08-19T02:17:32;97730.97;;;21.84;69.53
15694;BME280;7947;48.834;9.132;2022-08-19T02:20:57;97719.72;;;21.85;69.95
15694;BME280;7947;48.834;9.132;2022-08-19T02:24:14;97727.47;;;21.83;69.84
15694;BME280;7947;48.834;9.132;2022-08-19T02:27:23;97732.19;;;21.86;69.20
15694;BME280;7947;48.834;9.132;2022-08-19T02:30:38;97725.50;;;21.84;70.41
15694;BME280;7947;48.834;9.132;2022-08-19T02:33:54;97724.31;;;21.81;69.69
15694;BME280;7947;48.834;9.132;2022-08-19T02:37:02;97728.16;;;21.80;69.92
15694;BME280;7947;48.834;9.132;2022-08-19T02:40:12;97726.91;;;21.78;70.22
15694;BME280;7947;48.834;9.132;2022-08-19T02:43:17;97725.53;;;21.68;70.00
15694;BME280;7947;48.834;9.132;2022-08-19T02:46:38;97725.44;;;21.65;70.30
15694;BME280;7947;48.834;9.132;2022-08-19T02:49:47;97720.78;;;21.65;70.79
15694;BME280;7947;48.834;9.132;2022-08-19T02:53:18;97720.34;;;21.63;70.69
15694;BME280;7947;48.834;9.132;2022-08-19T02:56:27;97720.53;;;21.54;71.17
15694;BME280;7947;48.834;9.132;2022-08-19T02:59:45;97722.06;;;21.52;71.35
15694;BME280;7947;48.834;9.132;2022-08-19T03:02:56;97722.06;;;21.52;71.58
15694;BME280;7947;48.834;9.132;2022-08-19T03:06:07;97713.94;;;21.55;71.42
15694;BME280;7947;48.834;9.132;2022-08-19T03:09:32;97714.31;;;21.54;71.45
15694;BME280;7947;48.834;9.132;2022-08-19T03:12:58;97721.25;;;21.51;72.34
15694;BME280;7947;48.834;9.132;2022-08-19T03:16:06;97725.03;;;21.47;72.53
15694;BME280;7947;48.834;9.132;2022-08-19T03:19:31;97723.72;;;21.41;73.08
15694;BME280;7947;48.834;9.132;2022-08-19T03:22:55;97732.47;;;21.31;73.13
15694;BME280;7947;48.834;9.132;2022-08-19T03:26:16;97730.72;;;21.23;73.87
15694;BME280;7947;48.834;9.132;2022-08-19T03:30:01;97733.09;;;21.24;74.32
15694;BME280;7947;48.834;9.132;2022-08-19T03:33:14;97720.63;;;21.23;73.36
15694;BME280;7947;48.834;9.132;2022-08-19T03:36:38;97717.09;;;21.23;73.94
15694;BME280;7947;48.834;9.132;2022-08-19T03:39:46;97726.75;;;21.20;74.17
15694;BME280;7947;48.834;9.132;2022-08-19T03:43:04;97729.31;;;21.13;74.32
15694;BME280;7947;48.834;9.132;2022-08-19T03:46:21;97737.75;;;21.08;74.96
15694;BME280;7947;48.834;9.132;2022-08-19T03:49:31;97722.78;;;21.02;74.67
15694;BME280;7947;48.834;9.132;2022-08-19T03:53:03;97714.16;;;21.00;75.12
15694;BME280;7947;48.834;9.132;2022-08-19T03:56:15;97718.81;;;21.00;74.84
15694;BME280;7947;48.834;9.132;2022-08-19T03:59:34;97720.88;;;21.03;74.37
15694;BME280;7947;48.834;9.132;2022-08-19T04:02:51;97725.41;;;20.99;74.72
15694;BME280;7947;48.834;9.132;2022-08-19T04:06:14;97735.19;;;21.00;74.49
15694;BME280;7947;48.834;9.132;2022-08-19T04:09:27;97731.13;;;20.94;74.35
15694;BME280;7947;48.834;9.132;2022-08-19T04:12:48;97731.13;;;20.94;74.56
15694;BME280;7947;48.834;9.132;2022-08-19T04:15:56;97732.03;;;20.98;74.05
15694;BME280;7947;48.834;9.132;2022-08-19T04:19:13;97738.44;;;20.90;74.61
15694;BME280;7947;48.834;9.132;2022-08-19T04:22:26;97739.47;;;20.85;74.47
15694;BME280;7947;48.834;9.132;2022-08-19T04:25:43;97737.47;;;20.82;74.75
15694;BME280;7947;48.834;9.132;2022-08-19T04:29:03;97734.47;;;20.87;74.47
15694;BME280;7947;48.834;9.132;2022-08-19T04:32:16;97732.25;;;20.93;74.12
15694;BME280;7947;48.834;9.132;2022-08-19T04:35:28;97724.88;;;20.93;74.16
15694;BME280;7947;48.834;9.132;2022-08-19T04:38:44;97721.34;;;20.93;74.20
15694;BME280;7947;48.834;9.132;2022-08-19T04:42:10;97719.72;;;20.88;74.53
15694;BME280;7947;48.834;9.132;2022-08-19T04:45:36;97727.88;;;20.88;74.77
15694;BME280;7947;48.834;9.132;2022-08-19T04:48:46;97740.00;;;20.91;74.42
15694;BME280;7947;48.834;9.132;2022-08-19T04:52:18;97743.16;;;20.93;74.26
15694;BME280;7947;48.834;9.132;2022-08-19T04:55:33;97739.41;;;20.97;74.10
15694;BME280;7947;48.834;9.132;2022-08-19T04:58:52;97738.25;;;20.98;73.84
15694;BME280;7947;48.834;9.132;2022-08-19T05:02:10;97740.19;;;20.98;73.67
15694;BME280;7947;48.834;9.132;2022-08-19T05:05:26;97740.97;;;20.98;74.04
15694;BME280;7947;48.834;9.132;2022-08-19T05:08:47;97745.66;;;20.98;73.96
15694;BME280;7947;48.834;9.132;2022-08-19T05:12:00;97747.09;;;21.07;73.21
15694;BME280;7947;48.834;9.132;2022-08-19T05:15:13;97746.66;;;21.05;73.37
15694;BME280;7947;48.834;9.132;2022-08-19T05:18:31;97753.59;;;21.03;73.45
15694;BME280;7947;48.834;9.132;2022-08-19T05:21:56;97763.00;;;21.05;73.85
15694;BME280;7947;48.834;9.132;2022-08-19T05:25:38;97765.47;;;21.10;73.56
15694;BME280;7947;48.834;9.132;2022-08-19T05:28:49;97790.28;;;21.05;73.88
15694;BME280;7947;48.834;9.132;2022-08-19T05:32:14;97796.97;;;21.08;73.62
15694;BME280;7947;48.834;9.132;2022-08-19T05:35:23;97812.00;;;21.02;73.96
15694;BME280;7947;48.834;9.132;2022-08-19T05:38:36;97813.56;;;21.03;74.06
15694;BME280;7947;48.834;9.132;2022-08-19T05:41:54;97831.53;;;21.04;74.21
15694;BME280;7947;48.834;9.132;2022-08-19T05:45:06;97833.56;;;21.07;73.89
15694;BME280;7947;48.834;9.132;2022-08-19T05:48:20;97837.16;;;21.11;73.63
15694;BME280;7947;48.834;9.132;2022-08-19T05:51:35;97828.53;;;21.09;73.84
15694;BME280;7947;48.834;9.132;2022-08-19T05:54:59;97826.69;;;21.13;73.98
15694;BME280;7947;48.834;9.132;2022-08-19T05:58:15;97832.88;;;21.10;73.89
15694;BME280;7947;48.834;9.132;2022-08-19T06:01:30;97834.78;;;21.09;73.96
15694;BME280;7947;48.834;9.132;2022-08-19T06:04:45;97827.06;;;21.11;73.77
15694;BME280;7947;48.834;9.132;2022-08-19T06:08:05;97828.63;;;21.12;73.99
15694;BME280;7947;48.834;9.132;2022-08-19T06:11:21;97825.75;;;21.21;73.35
15694;BME280;7947;48.834;9.132;2022-08-19T06:14:32;97832.25;;;21.16;73.38
15694;BME280;7947;48.834;9.132;2022-08-19T06:18:03;97831.13;;;21.17;73.60
15694;BME280;7947;48.834;9.132;2022-08-19T06:21:18;97833.03;;;21.17;73.60
15694;BME280;7947;48.834;9.132;2022-08-19T06:24:28;97828.72;;;21.16;74.08
15694;BME280;7947;48.834;9.132;2022-08-19T06:27:38;97830.25;;;21.29;73.12
15694;BME280;7947;48.834;9.132;2022-08-19T06:31:07;97827.06;;;21.27;73.32
15694;BME280;7947;48.834;9.132;2022-08-19T06:34:19;97823.53;;;21.26;72.91
15694;BME280;7947;48.834;9.132;2022-08-19T06:37:55;97827.22;;;21.18;73.67
15694;BME280;7947;48.834;9.132;2022-08-19T06:41:04;97825.38;;;21.22;73.64
15694;BME280;7947;48.834;9.132;2022-08-19T06:44:17;97837.53;;;21.25;73.50
15694;BME280;7947;48.834;9.132;2022-08-19T06:47:49;97840.34;;;21.28;73.28
15694;BME280;7947;48.834;9.132;2022-08-19T06:51:10;97841.03;;;21.25;73.34
15694;BME280;7947;48.834;9.132;2022-08-19T06:54:39;97835.94;;;21.24;73.55
15694;BME280;7947;48.834;9.132;2022-08-19T06:58:20;97834.47;;;21.26;73.64
15694;BME280;7947;48.834;9.132;2022-08-19T07:01:42;97834.53;;;21.30;74.07
15694;BME280;7947;48.834;9.132;2022-08-19T07:04:59;97834.63;;;21.33;73.74
15694;BME280;7947;48.834;9.132;2022-08-19T07:08:13;97838.88;;;21.31;73.28
15694;BME280;7947;48.834;9.132;2022-08-19T07:11:27;97845.38;;;21.26;73.01
15694;BME280;7947;48.834;9.132;2022-08-19T07:14:39;97844.13;;;21.24;73.69
15694;BME280;7947;48.834;9.132;2022-08-19T07:22:29;97851.34;;;21.32;73.13
15694;BME280;7947;48.834;9.132;2022-08-19T07:25:55;97857.59;;;21.32;73.02
15694;BME280;7947;48.834;9.132;2022-08-19T07:29:32;97856.00;;;21.31;72.59
15694;BME280;7947;48.834;9.132;2022-08-19T07:32:59;97851.34;;;21.32;72.97
15694;BME280;7947;48.834;9.132;2022-08-19T07:36:27;97855.31;;;21.34;72.61
15694;BME280;7947;48.834;9.132;2022-08-19T07:39:39;97861.75;;;21.42;72.41
15694;BME280;7947;48.834;9.132;2022-08-19T07:42:58;97859.63;;;21.35;72.69
15694;BME280;7947;48.834;9.132;2022-08-19T07:46:19;97851.78;;;21.34;72.84
15694;BME280;7947;48.834;9.132;2022-08-19T07:49:28;97863.06;;;21.48;72.51
15694;BME280;7947;48.834;9.132;2022-08-19T07:52:45;97852.16;;;21.48;72.20
15694;BME280;7947;48.834;9.132;2022-08-19T07:56:14;97855.94;;;21.43;72.35
15694;BME280;7947;48.834;9.132;2022-08-19T07:59:21;97859.25;;;21.37;72.90
15694;BME280;7947;48.834;9.132;2022-08-19T08:02:51;97858.56;;;21.40;72.50
15694;BME280;7947;48.834;9.132;2022-08-19T08:06:12;97863.16;;;21.36;72.87
15694;BME280;7947;48.834;9.132;2022-08-19T08:09:49;97857.53;;;21.44;72.75
15694;BME280;7947;48.834;9.132;2022-08-19T08:13:07;97866.84;;;21.43;72.29
15694;BME280;7947;48.834;9.132;2022-08-19T08:16:26;97867.38;;;21.49;71.98
15694;BME280;7947;48.834;9.132;2022-08-19T08:19:44;97869.13;;;21.41;72.27
15694;BME280;7947;48.834;9.132;2022-08-19T08:22:57;97876.19;;;21.42;72.25
15694;BME280;7947;48.834;9.132;2022-08-19T08:26:24;97877.69;;;21.40;73.06
15694;BME280;7947;48.834;9.132;2022-08-19T08:29:40;97874.00;;;21.48;72.54
15694;BME280;7947;48.834;9.132;2022-08-19T08:32:51;97870.81;;;21.46;72.35
15694;BME280;7947;48.834;9.132;2022-08-19T08:36:05;97883.22;;;21.43;72.61
15694;BME280;7947;48.834;9.132;2022-08-19T08:39:19;97871.50;;;21.43;72.72
15694;BME280;7947;48.834;9.132;2022-08-19T08:42:43;97875.84;;;21.44;73.55
15694;BME280;7947;48.834;9.132;2022-08-19T08:45:55;97880.13;;;21.45;73.57
15694;BME280;7947;48.834;9.132;2022-08-19T08:49:04;97880.06;;;21.57;72.84
15694;BME280;7947;48.834;9.132;2022-08-19T08:52:17;97870.19;;;21.52;72.90
15694;BME280;7947;48.834;9.132;2022-08-19T08:55:23;97874.06;;;21.51;72.90
15694;BME280;7947;48.834;9.132;2022-08-19T08:58:45;97877.69;;;21.55;73.13
15694;BME280;7947;48.834;9.132;2022-08-19T09:01:55;97875.75;;;21.56;73.35
15694;BME280;7947;48.834;9.132;2022-08-19T09:04:58;97872.66;;;21.58;73.47
15694;BME280;7947;48.834;9.132;2022-08-19T09:08:07;97868.19;;;21.65;73.58
15694;BME280;7947;48.834;9.132;2022-08-19T09:11:17;97868.69;;;21.71;73.25
15694;BME280;7947;48.834;9.132;2022-08-19T09:14:46;97871.72;;;21.81;72.74
15694;BME280;7947;48.834;9.132;2022-08-19T09:17:52;97882.66;;;21.81;73.30
15694;BME280;7947;48.834;9.132;2022-08-19T09:20:55;97871.97;;;21.92;72.66
15694;BME280;7947;48.834;9.132;2022-08-19T09:24:00;97872.84;;;21.96;73.29
15694;BME280;7947;48.834;9.132;2022-08-19T09:27:04;97878.13;;;22.04;72.30
15694;BME280;7947;48.834;9.132;2022-08-19T09:30:21;97883.13;;;22.18;72.37
15694;BME280;7947;48.834;9.132;2022-08-19T09:33:25;97883.28;;;22.25;72.12
15694;BME280;7947;48.834;9.132;2022-08-19T09:36:31;97883.66;;;22.42;71.30
15694;BME280;7947;48.834;9.132;2022-08-19T09:39:39;97884.03;;;22.41;71.43
15694;BME280;7947;48.834;9.132;2022-08-19T09:42:44;97882.31;;;22.52;70.91
15694;BME280;7947;48.834;9.132;2022-08-19T09:45:52;97884.00;;;22.57;71.06
15694;BME280;7947;48.834;9.132;2022-08-19T09:48:56;97883.19;;;22.56;70.79
15694;BME280;7947;48.834;9.132;2022-08-19T09:52:08;97878.19;;;22.58;70.62
15694;BME280;7947;48.834;9.132;2022-08-19T09:55:15;97893.25;;;22.52;70.68
15694;BME280;7947;48.834;9.132;2022-08-19T09:58:18;97897.53;;;22.53;71.37
15694;BME280;7947;48.834;9.132;2022-08-19T10:01:28;97892.00;;;22.50;70.63
15694;BME280;7947;48.834;9.132;2022-08-19T10:04:31;97888.22;;;22.54;70.81
15694;BME280;7947;48.834;9.132;2022-08-19T10:07:48;97889.47;;;22.57;70.58
15694;BME280;7947;48.834;9.132;2022-08-19T10:10:53;97886.28;;;22.55;70.84
15694;BME280;7947;48.834;9.132;2022-08-19T10:13:59;97878.41;;;22.53;70.66
15694;BME280;7947;48.834;9.132;2022-08-19T10:17:02;97881.00;;;22.46;71.04
15694;BME280;7947;48.834;9.132;2022-08-19T10:20:20;97892.28;;;22.44;70.78
15694;BME280;7947;48.834;9.132;2022-08-19T10:23:23;97883.72;;;22.46;71.45
15694;BME280;7947;48.834;9.132;2022-08-19T10:26:29;97892.38;;;22.48;72.01
15694;BME280;7947;48.834;9.132;2022-08-19T10:29:32;97876.47;;;22.54;71.54
15694;BME280;7947;48.834;9.132;2022-08-19T10:32:35;97884.78;;;22.57;71.39
15694;BME280;7947;48.834;9.132;2022-08-19T10:35:46;97871.28;;;22.64;70.39
15694;BME280;7947;48.834;9.132;2022-08-19T10:39:00;97869.47;;;22.72;70.33
15694;BME280;7947;48.834;9.132;2022-08-19T10:42:07;97871.56;;;22.78;69.14
15694;BME280;7947;48.834;9.132;2022-08-19T10:45:12;97866.59;;;22.84;69.58
15694;BME280;7947;48.834;9.132;2022-08-19T10:48:15;97861.13;;;22.84;68.83
15694;BME280;7947;48.834;9.132;2022-08-19T10:51:21;97865.81;;;22.83;68.50
15694;BME280;7947;48.834;9.132;2022-08-19T10:54:48;97863.06;;;22.83;68.18
15694;BME280;7947;48.834;9.132;2022-08-19T10:58:12;97875.56;;;22.84;68.42
15694;BME280;7947;48.834;9.132;2022-08-19T11:01:14;97868.22;;;22.88;67.85
15694;BME280;7947;48.834;9.132;2022-08-19T11:04:18;97872.50;;;22.86;67.92
15694;BME280;7947;48.834;9.132;2022-08-19T11:07:21;97860.03;;;22.88;68.13
15694;BME280;7947;48.834;9.132;2022-08-19T11:10:28;97863.78;;;22.99;67.17
15694;BME280;7947;48.834;9.132;2022-08-19T11:13:34;97859.28;;;23.10;67.62
15694;BME280;7947;48.834;9.132;2022-08-19T11:16:38;97861.44;;;23.20;66.97
15694;BME280;7947;48.834;9.132;2022-08-19T11:19:41;97861.50;;;23.24;66.50
15694;BME280;7947;48.834;9.132;2022-08-19T11:22:44;97864.81;;;23.33;65.67
15694;BME280;7947;48.834;9.132;2022-08-19T11:25:49;97859.06;;;23.38;65.42
15694;BME280;7947;48.834;9.132;2022-08-19T11:28:53;97853.31;;;23.47;64.83
15694;BME280;7947;48.834;9.132;2022-08-19T11:31:56;97853.63;;;23.42;64.14
15694;BME280;7947;48.834;9.132;2022-08-19T11:34:59;97862.38;;;23.51;64.00
15694;BME280;7947;48.834;9.132;2022-08-19T11:38:02;97852.66;;;23.53;63.63
15694;BME280;7947;48.834;9.132;2022-08-19T11:41:10;97853.03;;;23.52;64.62
15694;BME280;7947;48.834;9.132;2022-08-19T11:44:14;97854.22;;;23.54;63.52
15694;BME280;7947;48.834;9.132;2022-08-19T11:47:18;97848.88;;;23.61;64.13
15694;BME280;7947;48.834;9.132;2022-08-19T11:50:20;97848.56;;;23.66;64.69
15694;BME280;7947;48.834;9.132;2022-08-19T11:53:25;97856.84;;;23.70;63.94
15694;BME280;7947;48.834;9.132;2022-08-19T11:56:28;97851.34;;;23.70;63.02
15694;BME280;7947;48.834;9.132;2022-08-19T11:59:32;97858.78;;;23.69;62.66
15694;BME280;7947;48.834;9.132;2022-08-19T12:02:35;97857.09;;;23.61;63.38
15694;BME280;7947;48.834;9.132;2022-08-19T12:05:39;97855.22;;;23.65;63.18
15694;BME280;7947;48.834;9.132;2022-08-19T12:08:43;97840.41;;;23.70;63.79
15694;BME280;7947;48.834;9.132;2022-08-19T12:11:46;97836.19;;;23.76;63.35
15694;BME280;7947;48.834;9.132;2022-08-19T12:14:50;97842.56;;;23.83;62.36
15694;BME280;7947;48.834;9.132;2022-08-19T12:17:57;97844.66;;;23.90;62.55
15694;BME280;7947;48.834;9.132;2022-08-19T12:21:00;97839.88;;;23.87;62.80
15694;BME280;7947;48.834;9.132;2022-08-19T12:24:06;97846.50;;;23.82;63.19
15694;BME280;7947;48.834;9.132;2022-08-19T12:27:09;97840.22;;;23.82;63.22
15694;BME280;7947;48.834;9.132;2022-08-19T12:30:14;97837.78;;;23.77;61.22
15694;BME280;7947;48.834;9.132;2022-08-19T12:33:18;97844.31;;;23.69;61.66
15694;BME280;7947;48.834;9.132;2022-08-19T12:36:25;97843.47;;;23.65;62.68
15694;BME280;7947;48.834;9.132;2022-08-19T12:39:28;97843.47;;;23.65;62.62
15694;BME280;7947;48.834;9.132;2022-08-19T12:42:31;97837.25;;;23.68;62.89
15694;BME280;7947;48.834;9.132;2022-08-19T12:45:36;97841.63;;;23.72;62.25
15694;BME280;7947;48.834;9.132;2022-08-19T12:48:40;97827.69;;;23.81;61.79
15694;BME280;7947;48.834;9.132;2022-08-19T12:51:46;97838.38;;;23.89;61.05
15694;BME280;7947;48.834;9.132;2022-08-19T12:54:49;97836.47;;;23.93;61.86
15694;BME280;7947;48.834;9.132;2022-08-19T12:57:55;97843.22;;;23.99;61.63
15694;BME280;7947;48.834;9.132;2022-08-19T13:00:59;97848.28;;;23.97;60.74
15694;BME280;7947;48.834;9.132;2022-08-19T13:04:02;97842.75;;;23.94;61.02
15694;BME280;7947;48.834;9.132;2022-08-19T13:07:05;97849.31;;;23.89;61.57
15694;BME280;7947;48.834;9.132;2022-08-19T13:10:10;97851.59;;;23.84;62.74
15694;BME280;7947;48.834;9.132;2022-08-19T13:13:13;97854.72;;;23.82;60.43
15694;BME280;7947;48.834;9.132;2022-08-19T13:16:18;97850.06;;;23.86;60.08
15694;BME280;7947;48.834;9.132;2022-08-19T13:19:23;97844.41;;;23.76;60.64
15694;BME280;7947;48.834;9.132;2022-08-19T13:22:25;97856.84;;;23.70;60.75
15694;BME280;7947;48.834;9.132;2022-08-19T13:25:28;97849.38;;;23.67;61.69
15694;BME280;7947;48.834;9.132;2022-08-19T13:28:32;97852.09;;;23.67;61.91
15694;BME280;7947;48.834;9.132;2022-08-19T13:31:50;97848.16;;;23.64;62.29
15694;BME280;7947;48.834;9.132;2022-08-19T13:35:16;97844.59;;;23.64;62.20
15694;BME280;7947;48.834;9.132;2022-08-19T13:38:20;97853.19;;;23.62;61.78
15694;BME280;7947;48.834;9.132;2022-08-19T13:41:24;97852.41;;;23.62;63.42
15694;BME280;7947;48.834;9.132;2022-08-19T13:44:27;97856.97;;;23.54;69.74
15694;BME280;7947;48.834;9.132;2022-08-19T13:47:35;97866.22;;;23.27;73.53
15694;BME280;7947;48.834;9.132;2022-08-19T13:50:46;97864.91;;;22.98;75.21
15694;BME280;7947;48.834;9.132;2022-08-19T13:53:50;97875.38;;;22.74;77.96
15694;BME280;7947;48.834;9.132;2022-08-19T13:56:54;97865.09;;;22.52;80.02
15694;BME280;7947;48.834;9.132;2022-08-19T13:59:57;97881.81;;;22.47;80.05
15694;BME280;7947;48.834;9.132;2022-08-19T14:03:04;97869.19;;;22.42;81.11
15694;BME280;7947;48.834;9.132;2022-08-19T14:06:10;97874.88;;;22.33;82.11
15694;BME280;7947;48.834;9.132;2022-08-19T14:09:14;97865.66;;;22.41;82.15
15694;BME280;7947;48.834;9.132;2022-08-19T14:12:19;97871.00;;;22.54;82.43
15694;BME280;7947;48.834;9.132;2022-08-19T14:15:30;97872.84;;;22.65;81.84
15694;BME280;7947;48.834;9.132;2022-08-19T14:18:37;97874.81;;;22.65;81.57
15694;BME280;7947;48.834;9.132;2022-08-19T14:21:41;97865.66;;;22.76;81.85
15694;BME280;7947;48.834;9.132;2022-08-19T14:24:45;97872.13;;;22.87;81.38
15694;BME280;7947;48.834;9.132;2022-08-19T14:27:50;97867.72;;;23.02;80.27
15694;BME280;7947;48.834;9.132;2022-08-19T14:30:54;97861.38;;;23.17;79.54
15694;BME280;7947;48.834;9.132;2022-08-19T14:33:59;97867.34;;;23.22;79.54
15694;BME280;7947;48.834;9.132;2022-08-19T14:37:03;97857.41;;;23.34;79.41
15694;BME280;7947;48.834;9.132;2022-08-19T14:40:09;97853.22;;;23.40;78.85
15694;BME280;7947;48.834;9.132;2022-08-19T14:43:13;97853.50;;;23.35;76.77
15694;BME280;7947;48.834;9.132;2022-08-19T14:46:20;97851.94;;;23.34;76.83
15694;BME280;7947;48.834;9.132;2022-08-19T14:49:27;97842.03;;;23.29;76.20
15694;BME280;7947;48.834;9.132;2022-08-19T14:52:37;97851.03;;;23.29;75.70
15694;BME280;7947;48.834;9.132;2022-08-19T14:55:43;97844.00;;;23.28;74.46
15694;BME280;7947;48.834;9.132;2022-08-19T14:58:47;97840.56;;;23.32;74.20
15694;BME280;7947;48.834;9.132;2022-08-19T15:01:53;97844.94;;;23.36;74.59
15694;BME280;7947;48.834;9.132;2022-08-19T15:04:59;97832.16;;;23.44;74.63
15694;BME280;7947;48.834;9.132;2022-08-19T15:08:03;97830.63;;;23.46;74.30
15694;BME280;7947;48.834;9.132;2022-08-19T15:11:08;97826.44;;;23.52;74.35
15694;BME280;7947;48.834;9.132;2022-08-19T15:14:12;97823.06;;;23.62;73.91
15694;BME280;7947;48.834;9.132;2022-08-19T15:17:17;97824.09;;;23.77;72.88
15694;BME280;7947;48.834;9.132;2022-08-19T15:20:22;97824.66;;;23.89;70.14
15694;BME280;7947;48.834;9.132;2022-08-19T15:23:27;97821.25;;;23.96;70.83
15694;BME280;7947;48.834;9.132;2022-08-19T15:26:31;97834.53;;;23.94;70.72
15694;BME280;7947;48.834;9.132;2022-08-19T15:29:35;97824.34;;;23.94;71.55
15694;BME280;7947;48.834;9.132;2022-08-19T15:32:39;97835.09;;;23.80;72.08
15694;BME280;7947;48.834;9.132;2022-08-19T15:35:49;97832.50;;;23.91;72.24
15694;BME280;7947;48.834;9.132;2022-08-19T15:38:54;97842.00;;;23.97;71.57
15694;BME280;7947;48.834;9.132;2022-08-19T15:41:58;97839.84;;;24.06;71.40
15694;BME280;7947;48.834;9.132;2022-08-19T15:45:03;97844.63;;;24.12;70.37
15694;BME280;7947;48.834;9.132;2022-08-19T15:48:07;97837.63;;;24.15;70.80
15694;BME280;7947;48.834;9.132;2022-08-19T15:51:12;97840.34;;;24.15;70.11
15694;BME280;7947;48.834;9.132;2022-08-19T15:54:18;97845.41;;;24.13;70.95
15694;BME280;7947;48.834;9.132;2022-08-19T15:57:22;97841.16;;;24.15;71.39
15694;BME280;7947;48.834;9.132;2022-08-19T16:00:44;97854.78;;;24.12;71.39
15694;BME280;7947;48.834;9.132;2022-08-19T16:04:14;97860.47;;;24.00;71.70
15694;BME280;7947;48.834;9.132;2022-08-19T16:07:36;97856.81;;;23.92;72.81
15694;BME280;7947;48.834;9.132;2022-08-19T16:10:40;97854.09;;;23.92;73.02
15694;BME280;7947;48.834;9.132;2022-08-19T16:13:44;97860.56;;;23.81;72.72
15694;BME280;7947;48.834;9.132;2022-08-19T16:16:48;97857.88;;;23.62;72.90
15694;BME280;7947;48.834;9.132;2022-08-19T16:19:52;97864.19;;;23.66;73.46
15694;BME280;7947;48.834;9.132;2022-08-19T16:22:57;97864.16;;;23.62;74.15
15694;BME280;7947;48.834;9.132;2022-08-19T16:26:04;97874.94;;;23.52;74.80
15694;BME280;7947;48.834;9.132;2022-08-19T16:29:10;97882.63;;;23.46;75.09
15694;BME280;7947;48.834;9.132;2022-08-19T16:32:15;97881.28;;;23.37;74.91
15694;BME280;7947;48.834;9.132;2022-08-19T16:35:19;97882.84;;;23.15;76.01
15694;BME280;7947;48.834;9.132;2022-08-19T16:38:24;97885.94;;;22.75;77.67
15694;BME280;7947;48.834;9.132;2022-08-19T16:41:29;97887.94;;;22.59;78.31
15694;BME280;7947;48.834;9.132;2022-08-19T16:44:34;97887.50;;;22.57;79.19
15694;BME280;7947;48.834;9.132;2022-08-19T16:47:38;97897.13;;;22.51;79.21
15694;BME280;7947;48.834;9.132;2022-08-19T16:50:42;97890.81;;;22.47;79.01
15694;BME280;7947;48.834;9.132;2022-08-19T16:53:52;97900.84;;;22.43;79.37
15694;BME280;7947;48.834;9.132;2022-08-19T16:56:56;97903.66;;;22.47;79.28
15694;BME280;7947;48.834;9.132;2022-08-19T17:00:00;97900.56;;;22.48;78.99
15694;BME280;7947;48.834;9.132;2022-08-19T17:03:10;97908.88;;;22.36;79.68
15694;BME280;7947;48.834;9.132;2022-08-19T17:06:19;97904.84;;;22.30;80.50
15694;BME280;7947;48.834;9.132;2022-08-19T17:09:25;97915.06;;;22.33;80.33
15694;BME280;7947;48.834;9.132;2022-08-19T17:12:33;97911.03;;;22.27;79.98
15694;BME280;7947;48.834;9.132;2022-08-19T17:15:38;97917.91;;;22.21;80.14
15694;BME280;7947;48.834;9.132;2022-08-19T17:18:42;97919.50;;;22.22;80.37